Terminal Aerodrome Forecast
Issued by NWS

Home | Current Version | Previous Version | Text Only | Print | Product List | Glossary On
Versions: 1 2 3 4 5 6 7 8 9 10 11 12 13 14 15 16 17 18
791
FTAK31 PAJN 240642 AAA
TAFAPG
TAF AMD
PAPG 240642Z 2407/2506 00000KT 6SM BR BKN005 BKN015 OVC025
      TEMPO 2407/2409 2SM BR OVC005
     FM240900 00000KT 2SM BR OVC005
     FM241900 04005KT P6SM FEW015 BKN050=

USA.gov is the U.S. government's official web portal to all federal, state and local government web resources and services.